createdAt,value
2018-04-18T00:00:25.755Z,77.75
2018-04-18T00:01:35.578Z,77.75
2018-04-18T00:02:45.391Z,77.84
2018-04-18T00:03:54.948Z,77.75
2018-04-18T00:05:05.025Z,77.75
2018-04-18T00:06:14.892Z,78.13
2018-04-18T00:07:24.456Z,77.94
2018-04-18T00:08:34.004Z,77.94
2018-04-18T00:09:43.553Z,77.94
2018-04-18T00:10:53.643Z,78.13
2018-04-18T00:12:03.199Z,78.03
2018-04-18T00:13:13.023Z,78.03
2018-04-18T00:14:22.575Z,78.03
2018-04-18T00:15:32.401Z,78.03
2018-04-18T00:16:42.619Z,78.22
2018-04-18T00:17:52.435Z,77.75
2018-04-18T00:19:02.506Z,78.03
2018-04-18T00:20:12.594Z,77.94
2018-04-18T00:21:22.415Z,77.94
2018-04-18T00:22:32.488Z,77.9
2018-04-18T00:23:42.558Z,77.9
2018-04-18T00:24:52.124Z,77.7
2018-04-18T00:26:01.927Z,77.7
2018-04-18T00:27:12.007Z,77.99
2018-04-18T00:28:22.090Z,77.99
2018-04-18T00:29:32.186Z,77.8
2018-04-18T00:30:42.284Z,77.99
2018-04-18T00:31:52.374Z,77.8
2018-04-18T00:33:02.203Z,77.99
2018-04-18T00:34:12.268Z,77.9
2018-04-18T00:35:21.807Z,77.9
2018-04-18T00:36:31.917Z,77.9
2018-04-18T00:37:41.997Z,77.9
2018-04-18T00:38:52.068Z,77.99
2018-04-18T00:40:01.890Z,77.99
2018-04-18T00:41:11.730Z,77.9
2018-04-18T00:42:21.806Z,77.99
2018-04-18T00:43:31.603Z,77.9
2018-04-18T00:44:41.162Z,78.09
2018-04-18T00:45:50.993Z,77.99
2018-04-18T00:47:01.060Z,78.09
2018-04-18T00:48:11.142Z,78.28
2018-04-18T00:49:20.724Z,78.09
2018-04-18T00:50:30.792Z,78.38
2018-04-18T00:51:40.611Z,78.09
2018-04-18T00:52:50.425Z,78.28
2018-04-18T00:54:00.511Z,77.99
2018-04-18T00:55:10.330Z,78.14
2018-04-18T00:56:20.416Z,77.95
2018-04-18T00:57:30.219Z,77.95
2018-04-18T00:58:40.348Z,77.8
2018-04-18T00:59:50.432Z,77.8
2018-04-18T01:01:00.535Z,77.9
2018-04-18T01:02:10.382Z,77.9
2018-04-18T01:03:20.459Z,77.99
2018-04-18T01:04:30.535Z,77.99
2018-04-18T01:05:40.419Z,77.9
2018-04-18T01:06:49.977Z,77.8
2018-04-18T01:07:59.796Z,77.99
2018-04-18T01:09:09.883Z,77.99
2018-04-18T01:10:19.957Z,77.9
2018-04-18T01:11:30.062Z,77.7
2018-04-18T01:12:40.144Z,77.7
2018-04-18T01:13:50.250Z,77.76
2018-04-18T01:15:00.064Z,77.86
2018-04-18T01:16:10.134Z,77.9
2018-04-18T01:17:19.948Z,77.99
2018-04-18T01:18:29.774Z,77.9
2018-04-18T01:19:39.841Z,77.76
2018-04-18T01:20:49.652Z,77.95
2018-04-18T01:21:59.727Z,78.05
2018-04-18T01:23:09.800Z,77.76
2018-04-18T01:24:19.892Z,78.05
2018-04-18T01:25:29.958Z,77.76
2018-04-18T01:26:40.029Z,78.05
2018-04-18T01:27:50.098Z,77.86
2018-04-18T01:29:00.185Z,78.05
2018-04-18T01:30:10.250Z,78.14
2018-04-18T01:31:20.316Z,77.76
2018-04-18T01:32:30.421Z,77.86
2018-04-18T01:33:40.509Z,77.86
2018-04-18T01:34:50.581Z,77.86
2018-04-18T01:36:00.646Z,77.38
2018-04-18T01:37:10.455Z,77.76
2018-04-18T01:38:20.005Z,77.76
2018-04-18T01:39:30.093Z,77.57
2018-04-18T01:40:40.181Z,77.48
2018-04-18T01:41:50.284Z,77.95
2018-04-18T01:43:00.363Z,77.28
2018-04-18T01:44:10.456Z,78.05
2018-04-18T01:45:20.265Z,78.05
2018-04-18T01:46:29.881Z,77.86
2018-04-18T01:47:39.956Z,77.76
2018-04-18T01:48:49.516Z,77.86
2018-04-18T01:49:59.579Z,77.86
2018-04-18T01:51:09.665Z,77.86
2018-04-18T01:52:19.747Z,77.86
2018-04-18T01:53:29.820Z,77.86
2018-04-18T01:54:39.894Z,77.82
2018-04-18T01:55:49.724Z,77.92
2018-04-18T01:56:59.805Z,77.82
2018-04-18T01:58:10.023Z,77.82
2018-04-18T01:59:19.881Z,78.01
2018-04-18T02:00:30.125Z,77.82
2018-04-18T02:01:40.211Z,77.82
2018-04-18T02:02:50.294Z,78.11
2018-04-18T02:04:00.360Z,77.53
2018-04-18T02:05:10.462Z,77.44
2018-04-18T02:06:20.276Z,77.25
2018-04-18T02:07:30.381Z,77.25
2018-04-18T02:08:40.462Z,77.34
2018-04-18T02:09:50.533Z,77.44
2018-04-18T02:11:00.624Z,77.72
2018-04-18T02:12:10.715Z,77.53
2018-04-18T02:13:20.589Z,77.63
2018-04-18T02:14:30.680Z,77.44
2018-04-18T02:15:40.816Z,77.25
2018-04-18T02:16:50.888Z,77.25
2018-04-18T02:18:00.697Z,77.25
2018-04-18T02:19:10.773Z,77.25
2018-04-18T02:20:20.851Z,77.25
2018-04-18T02:21:30.935Z,77.25
2018-04-18T02:22:41.006Z,77.25
2018-04-18T02:23:51.087Z,77.34
2018-04-18T02:25:01.170Z,77.06
2018-04-18T02:26:11.277Z,77.25
2018-04-18T02:27:21.369Z,77.34
2018-04-18T02:28:30.931Z,77.06
2018-04-18T02:29:41.031Z,77.15
2018-04-18T02:30:50.848Z,77.25
2018-04-18T02:32:00.957Z,77.44
2018-04-18T02:33:11.072Z,77.53
2018-04-18T02:34:21.157Z,77.4
2018-04-18T02:35:31.258Z,77.44
2018-04-18T02:36:41.336Z,77.44
2018-04-18T02:37:51.404Z,77.25
2018-04-18T02:39:01.208Z,77.25
2018-04-18T02:40:11.030Z,77.25
2018-04-18T02:41:20.860Z,77.25
2018-04-18T02:42:30.960Z,77.21
2018-04-18T02:43:41.043Z,77.4
2018-04-18T02:44:50.876Z,77.21
2018-04-18T02:46:00.953Z,77.4
2018-04-18T02:47:10.786Z,77.21
2018-04-18T02:48:20.872Z,77.21
2018-04-18T02:49:30.957Z,77.11
2018-04-18T02:50:41.100Z,77.01
2018-04-18T02:51:51.169Z,77.21
2018-04-18T02:53:01.256Z,77.3
2018-04-18T02:54:11.339Z,77.3
2018-04-18T02:55:21.424Z,77.21
2018-04-18T02:56:31.006Z,77.3
2018-04-18T02:57:41.174Z,77.11
2018-04-18T02:58:51.251Z,77.21
2018-04-18T03:00:01.339Z,77.11
2018-04-18T03:01:11.432Z,77.21
2018-04-18T03:02:21.517Z,77.11
2018-04-18T03:34:07.899Z,74.25
2018-04-18T03:35:17.446Z,74.73
2018-04-18T03:36:27.525Z,75.49
2018-04-18T03:37:37.592Z,75.59
2018-04-18T03:38:47.673Z,76.64
2018-04-18T03:39:57.744Z,77.11
2018-04-18T03:41:07.803Z,77.3
2018-04-18T03:42:17.878Z,77.69
2018-04-18T03:43:27.960Z,78.01
2018-04-18T03:44:38.026Z,78.1
2018-04-18T03:45:48.165Z,77.91
2018-04-18T03:46:58.231Z,77.72
2018-04-18T03:48:08.292Z,77.72
2018-04-18T03:49:18.094Z,78.23
2018-04-18T03:50:28.169Z,78.05
2018-04-18T03:51:38.322Z,78.14
2018-04-18T03:52:48.419Z,77.95
2018-04-18T03:53:58.502Z,77.51
2018-04-18T03:55:08.575Z,77.89
2018-04-18T03:56:18.667Z,77.61
2018-04-18T03:57:28.798Z,77.8
2018-04-18T03:58:38.888Z,77.7
2018-04-18T03:59:48.979Z,77.61
2018-04-18T04:00:59.049Z,77.74
2018-04-18T04:02:09.132Z,77.65
2018-04-18T04:03:19.228Z,77.65
2018-04-18T04:04:29.315Z,77.45
2018-04-18T04:05:39.388Z,77.45
2018-04-18T04:06:49.479Z,76.98
2018-04-18T04:07:59.307Z,77.26
2018-04-18T04:09:09.128Z,77.26
2018-04-18T04:10:19.181Z,77.26
2018-04-18T04:11:29.335Z,77.17
2018-04-18T04:12:39.422Z,77.17
2018-04-18T04:13:49.510Z,77.17
2018-04-18T04:14:59.426Z,77.26
2018-04-18T04:16:09.515Z,77.26
2018-04-18T04:17:19.639Z,77.36
2018-04-18T04:18:29.716Z,77.36
2018-04-18T04:19:39.534Z,77.5
2018-04-18T04:20:49.667Z,77.21
2018-04-18T04:21:59.761Z,77.4
2018-04-18T04:23:09.584Z,77.21
2018-04-18T04:24:19.671Z,77.01
2018-04-18T04:25:29.761Z,77.11
2018-04-18T04:26:39.827Z,77.11
2018-04-18T04:27:49.906Z,76.92
2018-04-18T04:28:59.977Z,76.96
2018-04-18T04:30:10.096Z,76.39
2018-04-18T04:31:20.181Z,76.48
2018-04-18T04:32:29.791Z,75.37
2018-04-18T04:33:39.886Z,75.22
2018-04-18T04:34:49.444Z,74.55
2018-04-18T04:35:59.526Z,74.3
2018-04-18T04:37:09.598Z,74.49
2018-04-18T04:38:19.728Z,74.49
2018-04-18T04:39:29.535Z,74.05
2018-04-18T04:40:39.646Z,74.24
2018-04-18T04:41:49.719Z,74.47
2018-04-18T04:42:59.518Z,74.08
2018-04-18T04:44:09.604Z,74.66
2018-04-18T04:45:19.423Z,74.57
2018-04-18T04:46:29.485Z,74.6
2018-04-18T04:47:39.577Z,74.6
2018-04-18T04:48:49.680Z,74.69
2018-04-18T04:49:59.761Z,74.69
2018-04-18T04:51:09.836Z,74.26
2018-04-18T04:52:19.656Z,73.87
2018-04-18T04:53:29.750Z,73.72
2018-04-18T04:54:39.841Z,73.81
2018-04-18T04:55:49.915Z,73.52
2018-04-18T04:56:59.724Z,73.56
2018-04-18T04:58:09.813Z,74.23
2018-04-18T04:59:19.101Z,74.71
2018-04-18T05:00:29.166Z,74.13
2018-04-18T05:01:38.990Z,73.66
2018-04-18T05:02:49.084Z,73.98
2018-04-18T05:03:59.176Z,73.83
2018-04-18T05:05:08.989Z,73.35
2018-04-18T05:06:19.069Z,73.54
2018-04-18T05:07:29.200Z,72.9
2018-04-18T05:08:39.265Z,73.19
2018-04-18T05:09:49.349Z,73.38
2018-04-18T05:10:59.441Z,73.38
2018-04-18T05:12:09.510Z,73.9
2018-04-18T05:13:19.607Z,74.09
2018-04-18T05:14:29.449Z,73.8
2018-04-18T05:15:39.536Z,73.71
2018-04-18T05:16:49.614Z,73.71
2018-04-18T05:17:59.706Z,74.48
2018-04-18T05:19:09.826Z,74.96
2018-04-18T05:20:19.928Z,74.86
2018-04-18T05:21:30.012Z,74.67
2018-04-18T05:22:40.105Z,74.86
2018-04-18T05:23:49.665Z,74.67
2018-04-18T05:24:59.734Z,74.61
2018-04-18T05:26:09.564Z,74.8
2018-04-18T05:27:19.648Z,74.71
2018-04-18T05:28:29.742Z,74.8
2018-04-18T05:29:39.828Z,74.9
2018-04-18T05:30:49.902Z,74.84
2018-04-18T05:32:00.157Z,75.03
2018-04-18T05:33:09.965Z,74.74
2018-04-18T05:34:19.797Z,74.84
2018-04-18T05:35:29.960Z,74.84
2018-04-18T05:36:39.516Z,74.93
2018-04-18T05:37:49.592Z,74.93
2018-04-18T05:38:59.457Z,75.61
2018-04-18T05:40:09.535Z,76.15
2018-04-18T05:41:19.638Z,77.26
2018-04-18T05:42:29.464Z,77.61
2018-04-18T05:43:39.275Z,77.9
2018-04-18T05:44:49.096Z,76.9
2018-04-18T05:45:59.232Z,76.75
2018-04-18T05:47:09.324Z,76.26
2018-04-18T05:48:19.447Z,76.36
2018-04-18T05:49:29.295Z,77.58
2018-04-18T05:50:39.369Z,77.58
2018-04-18T05:51:49.447Z,77.92
2018-04-18T05:52:59.256Z,77.92
2018-04-18T05:54:09.333Z,77.63
2018-04-18T05:55:19.249Z,77.63
2018-04-18T05:56:29.263Z,77.92
2018-04-18T05:57:38.859Z,77.4
2018-04-18T05:58:48.712Z,76.92
2018-04-18T05:59:58.777Z,76.39
2018-04-18T06:01:08.057Z,76
2018-04-18T06:02:18.176Z,75.81
2018-04-18T06:03:27.740Z,76.09
2018-04-18T06:04:37.861Z,76.57
2018-04-18T06:05:47.998Z,76.19
2018-04-18T06:06:57.824Z,76.09
2018-04-18T06:08:07.905Z,76.67
2018-04-18T06:09:17.990Z,75.71
2018-04-18T06:10:28.091Z,76.23
2018-04-18T06:11:38.669Z,75.84
2018-04-18T06:12:48.484Z,75.94
2018-04-18T06:13:58.583Z,76
2018-04-18T06:15:08.718Z,76.29
2018-04-18T06:16:18.806Z,76.67
2018-04-18T06:17:28.364Z,76.57
2018-04-18T06:18:38.454Z,76.67
2018-04-18T06:19:48.286Z,76.48
2018-04-18T06:20:58.433Z,76.48
2018-04-18T06:22:08.506Z,76.29
2018-04-18T06:23:18.330Z,76.39
2018-04-18T06:24:28.146Z,76.19
2018-04-18T06:25:37.966Z,76.57
2018-04-18T06:26:48.115Z,76.48
2018-04-18T06:27:58.223Z,76.77
2018-04-18T06:29:08.291Z,76.57
2018-04-18T06:30:18.387Z,76.77
2018-04-18T06:31:28.464Z,76.57
2018-04-18T06:32:38.548Z,76.39
2018-04-18T06:33:48.644Z,76.42
2018-04-18T06:34:58.729Z,76.23
2018-04-18T06:36:08.847Z,76.14
2018-04-18T06:37:19.005Z,76.42
2018-04-18T06:38:28.817Z,76.42
2018-04-18T06:39:38.635Z,75.94
2018-04-18T06:40:48.771Z,75.94
2018-04-18T06:41:58.600Z,75.84
2018-04-18T06:43:08.697Z,76.04
2018-04-18T06:44:18.777Z,75.84
2018-04-18T06:45:28.633Z,75.84
2018-04-18T06:46:38.717Z,76.04
2018-04-18T06:47:48.807Z,75.94
2018-04-18T06:48:58.947Z,75.98
2018-04-18T06:50:09.030Z,76.17
2018-04-18T06:51:19.175Z,75.98
2018-04-18T06:52:29.362Z,76.07
2018-04-18T06:53:39.447Z,76.17
2018-04-18T06:54:49.275Z,76.17
2018-04-18T06:55:59.080Z,75.98
2018-04-18T06:57:09.159Z,75.98
2018-04-18T06:58:19.229Z,76.46
2018-04-18T06:59:29.293Z,76.07
2018-04-18T07:00:39.409Z,75.98
2018-04-18T07:01:49.513Z,76.17
2018-04-18T07:02:59.331Z,76.21
2018-04-18T07:04:09.163Z,76.01
2018-04-18T07:05:18.987Z,76.31
2018-04-18T07:06:28.551Z,75.92
2018-04-18T07:07:38.388Z,75.92
2018-04-18T07:08:48.471Z,75.92
2018-04-18T07:09:58.559Z,76.01
2018-04-18T07:11:08.436Z,76.11
2018-04-18T07:12:18.543Z,76.01
2018-04-18T07:13:28.633Z,76.06
2018-04-18T07:14:38.711Z,75.96
2018-04-18T07:15:48.794Z,76.06
2018-04-18T07:16:58.629Z,76.15
2018-04-18T07:18:08.753Z,76.06
2018-04-18T07:19:18.571Z,76.25
2018-04-18T07:20:28.393Z,76.25
2018-04-18T07:21:38.210Z,76.18
2018-04-18T07:22:48.303Z,76.28
2018-04-18T07:23:58.169Z,76.28
2018-04-18T07:25:07.985Z,75.8
2018-04-18T07:26:18.076Z,75.71
2018-04-18T07:27:28.189Z,75.8
2018-04-18T07:28:37.522Z,75.8
2018-04-18T07:29:47.628Z,75.93
2018-04-18T07:30:57.473Z,75.93
2018-04-18T07:32:07.557Z,76.03
2018-04-18T07:33:17.691Z,76.23
2018-04-18T07:34:27.855Z,75.93
2018-04-18T07:35:37.946Z,75.93
2018-04-18T07:36:48.020Z,75.93
2018-04-18T07:37:57.842Z,75.84
2018-04-18T07:39:07.907Z,76.23
2018-04-18T07:40:17.726Z,76.03
2018-04-18T07:41:27.814Z,76.42
2018-04-18T07:42:37.927Z,76.32
2018-04-18T07:43:47.776Z,76.13
2018-04-18T07:44:57.853Z,76.32
2018-04-18T07:46:07.936Z,76.13
2018-04-18T07:47:17.736Z,76.07
2018-04-18T07:48:27.800Z,76.17
2018-04-18T07:49:37.908Z,76.17
2018-04-18T07:50:47.999Z,76.36
2018-04-18T07:51:57.552Z,76.26
2018-04-18T07:53:07.660Z,75.88
2018-04-18T07:54:17.749Z,75.97
2018-04-18T07:55:27.843Z,75.97
2018-04-18T07:56:37.682Z,75.92
2018-04-18T07:57:47.521Z,76.3
2018-04-18T07:58:57.610Z,76.36
2018-04-18T08:00:07.700Z,76.2
2018-04-18T08:01:17.796Z,75.97
2018-04-18T08:02:27.930Z,76.2
2018-04-18T08:03:38.005Z,76.1
2018-04-18T08:04:48.087Z,76.4
2018-04-18T08:05:58.179Z,76.3
2018-04-18T08:07:08.015Z,76.2
2018-04-18T08:08:18.090Z,76.2
2018-04-18T08:09:28.191Z,76.4
2018-04-18T08:10:38.295Z,76.3
2018-04-18T08:11:48.400Z,76.05
2018-04-18T08:12:57.965Z,76.43
2018-04-18T08:14:08.110Z,76.63
2018-04-18T08:15:18.348Z,76.24
2018-04-18T08:16:28.892Z,76.72
2018-04-18T08:17:38.971Z,76.53
2018-04-18T08:18:49.061Z,76.43
2018-04-18T08:19:59.204Z,76.24
2018-04-18T08:21:09.026Z,76.53
2018-04-18T08:22:18.872Z,76.24
2018-04-18T08:23:28.957Z,75.95
2018-04-18T08:24:38.772Z,76.15
2018-04-18T08:25:48.858Z,75.95
2018-04-18T08:26:58.971Z,76.34
2018-04-18T08:28:08.530Z,76.15
2018-04-18T08:29:18.626Z,75.95
2018-04-18T08:30:28.448Z,76.34
2018-04-18T08:31:38.528Z,76.24
2018-04-18T08:32:48.641Z,76.24
2018-04-18T08:33:58.763Z,76.72
2018-04-18T08:35:08.807Z,76.67
2018-04-18T08:36:18.896Z,75.99
2018-04-18T08:37:28.753Z,76.18
2018-04-18T08:38:38.851Z,76.18
2018-04-18T08:39:48.658Z,76.18
2018-04-18T08:40:58.736Z,75.84
2018-04-18T08:42:08.817Z,75.74
2018-04-18T08:43:18.904Z,75.74
2018-04-18T08:44:28.722Z,75.93
2018-04-18T08:45:38.818Z,75.64
2018-04-18T08:46:48.906Z,75.74
2018-04-18T08:47:59.004Z,75.93
2018-04-18T08:49:09.074Z,76.16
2018-04-18T08:50:19.165Z,75.2
2018-04-18T08:51:29.255Z,75.91
2018-04-18T08:52:39.361Z,75.29
2018-04-18T08:53:48.970Z,75.33
2018-04-18T08:54:58.859Z,75.13
2018-04-18T08:56:08.966Z,75.17
2018-04-18T08:57:18.793Z,75.17
2018-04-18T08:58:28.614Z,74.98
2018-04-18T08:59:38.735Z,75.23
2018-04-18T09:00:48.826Z,75.91
2018-04-18T09:01:58.987Z,75.71
2018-04-18T09:03:09.115Z,75.17
2018-04-18T09:04:18.931Z,75.07
2018-04-18T09:05:29.054Z,75.85
2018-04-18T09:06:38.881Z,76.49
2018-04-18T09:07:48.724Z,76.78
2018-04-18T09:08:58.819Z,77.13
2018-04-18T09:10:08.923Z,76.93
2018-04-18T09:11:19.023Z,76.26
2018-04-18T09:12:29.098Z,76.29
2018-04-18T09:13:39.172Z,75.85
2018-04-18T09:14:48.979Z,75.85
2018-04-18T09:15:59.064Z,75.85
2018-04-18T09:17:09.168Z,75.17
2018-04-18T09:18:19.245Z,76.04
2018-04-18T09:19:29.348Z,75.65
2018-04-18T09:20:39.446Z,75.85
2018-04-18T09:21:49.531Z,76.04
2018-04-18T09:22:59.357Z,76.04
2018-04-18T09:24:09.454Z,75.07
2018-04-18T09:25:19.567Z,75.02
2018-04-18T09:26:29.655Z,75.31
2018-04-18T09:27:39.744Z,75.02
2018-04-18T09:28:49.845Z,75.02
2018-04-18T09:29:59.927Z,75.54
2018-04-18T09:31:09.761Z,74.66
2018-04-18T09:32:19.323Z,74.38
2018-04-18T09:33:29.197Z,74.6
2018-04-18T09:34:39.292Z,74.22
2018-04-18T09:35:49.400Z,74.16
2018-04-18T09:36:59.484Z,74.35
2018-04-18T09:38:09.304Z,74.8
2018-04-18T09:39:19.410Z,74.64
2018-04-18T09:40:29.491Z,73.71
2018-04-18T09:41:39.351Z,74.45
2018-04-18T09:42:49.178Z,73.96
2018-04-18T09:43:59.272Z,74.33
2018-04-18T09:45:09.492Z,74.13
2018-04-18T09:46:19.666Z,73.84
2018-04-18T09:47:29.761Z,75.49
2018-04-18T09:48:39.856Z,76
2018-04-18T09:49:49.428Z,76.7
2018-04-18T09:50:59.505Z,76.7
2018-04-18T09:52:09.674Z,76.6
2018-04-18T09:53:19.752Z,76.12
2018-04-18T09:54:29.873Z,76.21
2018-04-18T09:55:39.948Z,76.21
2018-04-18T09:56:50.040Z,76.02
2018-04-18T09:57:59.859Z,75.83
2018-04-18T09:59:09.944Z,75.28
2018-04-18T10:00:20.035Z,75.09
2018-04-18T10:01:30.173Z,75.38
2018-04-18T10:02:40.259Z,75.09
2018-04-18T10:03:50.347Z,75.13
2018-04-18T10:05:00.445Z,75.28
2018-04-18T10:06:10.553Z,75.51
2018-04-18T10:07:20.168Z,75.32
2018-04-18T10:08:29.992Z,75.51
2018-04-18T10:09:40.083Z,75.23
2018-04-18T10:10:50.174Z,76
2018-04-18T10:11:59.988Z,76.06
2018-04-18T10:13:10.119Z,76.15
2018-04-18T10:14:20.235Z,75.96
2018-04-18T10:15:30.083Z,76.54
2018-04-18T10:16:40.177Z,76.41
2018-04-18T10:17:49.994Z,76.25
2018-04-18T10:19:00.068Z,76.15
2018-04-18T10:20:10.130Z,76.06
2018-04-18T10:21:20.225Z,76.06
2018-04-18T10:22:30.077Z,75.96
2018-04-18T10:23:40.154Z,75.87
2018-04-18T10:24:50.250Z,76.06
2018-04-18T10:26:00.067Z,76.15
2018-04-18T10:27:09.885Z,75.96
2018-04-18T10:28:19.960Z,76.06
2018-04-18T10:29:30.058Z,75.77
2018-04-18T10:30:39.877Z,76.15
2018-04-18T10:31:49.968Z,76.15
2018-04-18T10:33:00.094Z,76.15
2018-04-18T10:34:10.180Z,75.96
2018-04-18T10:35:20.316Z,76.06
2018-04-18T10:36:30.457Z,76.15
2018-04-18T10:37:40.572Z,76.15
2018-04-18T10:38:50.653Z,76.15
2018-04-18T10:40:00.751Z,75.96
2018-04-18T10:41:10.591Z,75.9
2018-04-18T10:42:20.414Z,76
2018-04-18T10:43:30.485Z,76.19
2018-04-18T10:44:40.288Z,76.19
2018-04-18T10:45:50.388Z,76.19
2018-04-18T10:47:00.467Z,75.9
2018-04-18T10:48:10.358Z,76.1
2018-04-18T10:49:20.456Z,75.9
2018-04-18T10:50:30.571Z,75.9
2018-04-18T10:51:40.412Z,76
2018-04-18T10:52:50.521Z,75.9
2018-04-18T10:54:00.859Z,76
2018-04-18T10:55:10.428Z,75.9
2018-04-18T10:56:20.496Z,75.9
2018-04-18T10:57:30.611Z,76.1
2018-04-18T10:58:40.780Z,75.9
2018-04-18T10:59:50.615Z,75.81
2018-04-18T11:01:00.712Z,75.81
2018-04-18T11:02:10.551Z,75.42
2018-04-18T11:03:20.650Z,75.32
2018-04-18T11:04:30.779Z,75.42
2018-04-18T11:05:40.845Z,74.97
2018-04-18T11:06:50.940Z,75.26
2018-04-18T11:08:00.763Z,75.45
2018-04-18T11:09:10.868Z,75.36
2018-04-18T11:10:20.681Z,74.97
2018-04-18T11:11:30.767Z,75.45
2018-04-18T11:12:40.614Z,75.36
2018-04-18T11:13:50.698Z,75.45
2018-04-18T11:15:00.802Z,75.36
2018-04-18T11:16:10.905Z,75.4
2018-04-18T11:17:20.723Z,75.4
2018-04-18T11:18:30.828Z,75.49
2018-04-18T11:19:41.024Z,75.49
2018-04-18T11:20:51.123Z,75.49
2018-04-18T11:22:00.935Z,75.68
2018-04-18T11:23:11.035Z,75.68
2018-04-18T11:24:21.413Z,75.4
2018-04-18T11:25:31.521Z,75.2
2018-04-18T11:26:41.628Z,75.2
2018-04-18T11:27:51.731Z,75.2
2018-04-18T11:29:05.377Z,75.2
2018-04-18T11:30:15.464Z,75.3
2018-04-18T11:31:25.350Z,75.4
2018-04-18T11:32:35.230Z,75.43
2018-04-18T11:33:45.319Z,75.53
2018-04-18T11:34:55.158Z,75.49
2018-04-18T11:36:05.064Z,75.49
2018-04-18T11:37:14.962Z,75.62
2018-04-18T11:38:25.058Z,75.34
2018-04-18T11:39:35.168Z,75.53
2018-04-18T11:40:45.308Z,75.53
2018-04-18T11:41:55.411Z,75.24
2018-04-18T11:43:05.525Z,75.43
2018-04-18T11:44:15.631Z,75.24
2018-04-18T11:45:25.775Z,75.43
2018-04-18T11:46:35.997Z,75.43
2018-04-18T11:47:46.103Z,75.53
2018-04-18T11:48:56.243Z,75.47
2018-04-18T11:50:06.336Z,75.57
2018-04-18T11:51:16.758Z,75.57
2018-04-18T11:52:26.941Z,75.57
2018-04-18T11:53:37.062Z,75.57
2018-04-18T11:54:46.949Z,75.47
2018-04-18T11:55:56.804Z,75.57
2018-04-18T11:57:06.914Z,75.57
2018-04-18T11:58:17.262Z,75.41
2018-04-18T11:59:27.377Z,75.12
2018-04-18T12:00:37.524Z,75.31
2018-04-18T12:01:47.677Z,75.41
2018-04-18T12:02:57.798Z,74.92
2018-04-18T12:04:07.983Z,75.15
2018-04-18T12:05:18.242Z,74.76
2018-04-18T12:06:28.104Z,75.25
2018-04-18T12:07:38.208Z,75.35
2018-04-18T12:08:48.085Z,75.35
2018-04-18T12:09:58.436Z,75.25
2018-04-18T12:11:08.549Z,75.25
2018-04-18T12:12:18.394Z,75.15
2018-04-18T12:13:28.246Z,75.09
2018-04-18T12:14:38.367Z,75.09
2018-04-18T12:15:48.209Z,74.99
2018-04-18T12:16:58.300Z,74.99
2018-04-18T12:18:08.451Z,75.19
2018-04-18T12:19:18.556Z,75.09
2018-04-18T12:20:28.781Z,75.29
2018-04-18T12:21:38.993Z,74.9
2018-04-18T12:22:49.123Z,74.74
2018-04-18T12:23:59.035Z,75.13
2018-04-18T12:25:08.869Z,74.99
2018-04-18T12:26:19.220Z,75.13
2018-04-18T12:27:29.297Z,75.19
2018-04-18T12:28:39.163Z,75.23
2018-04-18T12:29:49.257Z,75.23
2018-04-18T12:30:59.118Z,74.93
2018-04-18T12:32:09.228Z,74.93
2018-04-18T12:33:19.077Z,74.74
2018-04-18T12:34:28.962Z,75.13
2018-04-18T12:35:39.149Z,75.62
2018-04-18T12:36:49.265Z,75.62
2018-04-18T12:37:59.379Z,75.38
2018-04-18T12:39:09.222Z,75.19
2018-04-18T12:40:19.324Z,75.78
2018-04-18T12:41:29.468Z,75.48
2018-04-18T12:42:39.605Z,75.58
2018-04-18T12:43:49.567Z,75.38
2018-04-18T12:44:59.691Z,75.58
2018-04-18T12:46:09.794Z,75.68
2018-04-18T12:47:19.694Z,75.78
2018-04-18T12:48:29.806Z,75.78
2018-04-18T12:49:39.919Z,75.58
2018-04-18T12:50:50.070Z,75.48
2018-04-18T12:52:00.188Z,75.29
2018-04-18T12:53:10.322Z,75.71
2018-04-18T12:54:20.425Z,75.52
2018-04-18T12:55:30.264Z,75.38
2018-04-18T12:56:40.378Z,75.78
2018-04-18T12:57:50.483Z,75.78
2018-04-18T12:59:00.320Z,75.58
2018-04-18T13:00:10.190Z,75.78
2018-04-18T13:01:20.306Z,75.68
2018-04-18T13:02:30.417Z,75.62
2018-04-18T13:03:40.527Z,75.32
2018-04-18T13:04:50.701Z,75.32
2018-04-18T13:06:00.816Z,75.71
2018-04-18T13:07:10.920Z,75.32
2018-04-18T13:08:20.762Z,75.42
2018-04-18T13:09:30.598Z,75.48
2018-04-18T13:10:40.806Z,75.68
2018-04-18T13:11:50.824Z,75.19
2018-04-18T13:13:00.650Z,75.71
2018-04-18T13:14:10.742Z,75.58
2018-04-18T13:15:20.870Z,75.68
2018-04-18T13:16:30.977Z,75.68
2018-04-18T13:17:41.301Z,75.68
2018-04-18T13:18:51.137Z,75.68
2018-04-18T13:20:01.237Z,75.68
2018-04-18T13:21:11.573Z,75.68
2018-04-18T13:22:21.463Z,75.42
2018-04-18T13:23:31.590Z,75.68
2018-04-18T13:24:41.422Z,75.29
2018-04-18T13:25:51.483Z,75.29
2018-04-18T13:27:01.607Z,75.48
2018-04-18T13:28:11.754Z,75.58
2018-04-18T13:29:21.868Z,75.78
2018-04-18T13:30:31.702Z,76.07
2018-04-18T13:31:41.786Z,76.42
2018-04-18T13:32:51.877Z,76.35
2018-04-18T13:34:01.783Z,76.42
2018-04-18T13:35:11.897Z,76.22
2018-04-18T13:36:22.081Z,76.32
2018-04-18T13:37:32.193Z,76.22
2018-04-18T13:38:42.306Z,76.42
2018-04-18T13:39:52.402Z,76.42
2018-04-18T13:41:02.233Z,76.61
2018-04-18T13:42:12.059Z,76.32
2018-04-18T13:43:22.154Z,76.32
2018-04-18T13:44:32.242Z,75.84
2018-04-18T13:45:42.344Z,76.32
2018-04-18T13:46:52.466Z,75.93
2018-04-18T13:48:02.642Z,76.22
2018-04-18T13:49:12.777Z,76.03
2018-04-18T13:50:22.884Z,76.12
2018-04-18T13:51:33.000Z,76.32
2018-04-18T13:52:43.099Z,76.32
2018-04-18T13:53:53.218Z,76.22
2018-04-18T13:55:03.335Z,76.38
2018-04-18T13:56:13.448Z,76.57
2018-04-18T13:57:23.572Z,76.67
2018-04-18T13:58:33.141Z,76.18
2018-04-18T13:59:43.251Z,76.28
2018-04-18T14:00:53.358Z,76.18
2018-04-18T14:02:03.452Z,76.38
2018-04-18T14:03:13.614Z,76.28
2018-04-18T14:04:23.471Z,76.48
2018-04-18T14:05:33.321Z,76.18
2018-04-18T14:06:43.445Z,76.18
2018-04-18T14:07:53.339Z,76.28
2018-04-18T14:09:03.513Z,76.28
2018-04-18T14:10:13.620Z,76.48
2018-04-18T14:11:23.456Z,76.28
2018-04-18T14:12:33.557Z,76.18
2018-04-18T14:13:43.706Z,76.38
2018-04-18T14:14:53.816Z,76.38
2018-04-18T14:16:03.931Z,76.28
2018-04-18T14:17:14.035Z,76.38
2018-04-18T14:18:24.120Z,76.18
2018-04-18T14:19:33.967Z,76.18
2018-04-18T14:20:44.172Z,76.38
2018-04-18T14:21:54.458Z,76.18
2018-04-18T14:23:04.588Z,76.18
2018-04-18T14:24:14.143Z,75.99
2018-04-18T14:25:24.279Z,76.51
2018-04-18T14:26:34.170Z,76.38
2018-04-18T14:27:44.207Z,76.38
2018-04-18T14:28:54.062Z,76.38
2018-04-18T14:30:04.166Z,75.99
2018-04-18T14:31:14.270Z,76.48
2018-04-18T14:32:24.135Z,76.77
2018-04-18T14:33:34.262Z,76.57
2018-04-18T14:34:44.367Z,76.57
2018-04-18T14:35:54.472Z,76.77
2018-04-18T14:37:04.566Z,76.77
2018-04-18T14:38:14.734Z,76.67
2018-04-18T14:39:24.834Z,76.67
2018-04-18T14:40:34.939Z,76.48
2018-04-18T14:41:44.815Z,76.57
2018-04-18T14:42:54.924Z,76.57
2018-04-18T14:44:05.240Z,76.67
2018-04-18T14:45:15.338Z,76.67
2018-04-18T14:46:25.160Z,76.67
2018-04-18T14:47:34.736Z,76.67
2018-04-18T14:48:44.867Z,76.48
2018-04-18T14:49:54.760Z,76.67
2018-04-18T14:51:04.617Z,76.48
2018-04-18T14:52:14.467Z,76.38
2018-04-18T14:53:24.595Z,76.77
2018-04-18T14:54:34.476Z,76.67
2018-04-18T14:55:44.587Z,76.48
2018-04-18T14:56:54.450Z,76.64
2018-04-18T14:58:04.302Z,76.54
2018-04-18T14:59:14.399Z,76.48
2018-04-18T15:00:24.514Z,76.48
2018-04-18T15:01:34.635Z,76.77
2018-04-18T15:02:44.756Z,76.87
2018-04-18T15:03:54.869Z,76.77
2018-04-18T15:05:05.219Z,76.48
2018-04-18T15:06:15.515Z,76.87
2018-04-18T15:07:25.620Z,76.57
2018-04-18T15:08:35.725Z,76.54
2018-04-18T15:09:45.841Z,77.02
2018-04-18T15:10:55.678Z,76.73
2018-04-18T15:12:05.787Z,76.73
2018-04-18T15:13:15.888Z,76.73
2018-04-18T15:14:25.733Z,77.12
2018-04-18T15:15:35.836Z,77.02
2018-04-18T15:16:45.955Z,77.22
2018-04-18T15:17:56.116Z,76.83
2018-04-18T15:19:06.237Z,77.22
2018-04-18T15:20:16.350Z,77.31
2018-04-18T15:21:26.449Z,76.83
2018-04-18T15:22:36.565Z,77.02
2018-04-18T15:23:46.951Z,77.02
2018-04-18T15:24:57.085Z,76.92
2018-04-18T15:26:07.240Z,77.12
2018-04-18T15:27:17.340Z,76.92
2018-04-18T15:28:27.728Z,77.12
2018-04-18T15:29:38.003Z,77.41
2018-04-18T15:30:48.113Z,77.22
2018-04-18T15:31:57.961Z,77.41
2018-04-18T15:33:07.857Z,77.41
2018-04-18T15:34:17.985Z,77.41
2018-04-18T15:35:28.159Z,77.31
2018-04-18T15:36:38.269Z,77.22